Time,TemperatureF,DewpointF,PressureIn,WindDirection,WindDirectionDegrees,WindSpeedMPH,WindSpeedGustMPH,Humidity,HourlyPrecipIn,Conditions,Clouds,dailyrainin,SolarRadiationWatts/m^2,SoftwareType,DateUTC
2013-02-21 00:01:00,1.8,-2.2,30.51,East,100,0.0,0.0,83,0.00,,,0.00,0.0,meteohub,2013-02-21 06:01:00,
2013-02-21 00:06:00,1.8,-2.0,30.51,East,100,0.0,0.0,84,0.00,,,0.00,0.0,meteohub,2013-02-21 06:06:00,
2013-02-21 00:11:00,1.6,-2.2,30.51,East,100,0.0,0.0,84,0.00,,,0.00,0.0,meteohub,2013-02-21 06:11:00,
2013-02-21 00:16:00,1.4,-2.4,30.51,East,100,0.0,0.0,84,0.00,,,0.00,0.0,meteohub,2013-02-21 06:16:00,
2013-02-21 00:21:00,1.2,-2.6,30.51,East,100,0.0,0.0,84,0.00,,,0.00,0.0,meteohub,2013-02-21 06:21:00,
2013-02-21 00:26:00,1.2,-2.6,30.51,East,100,0.0,0.0,84,0.00,,,0.00,0.0,meteohub,2013-02-21 06:26:00,
2013-02-21 00:31:00,1.2,-2.2,30.51,East,100,0.0,0.0,85,0.00,,,0.00,0.0,meteohub,2013-02-21 06:31:00,
2013-02-21 00:36:00,0.9,-2.9,30.51,East,100,0.0,0.0,84,0.00,,,0.00,0.0,meteohub,2013-02-21 06:36:00,
2013-02-21 00:41:00,0.5,-3.1,30.51,East,100,0.0,0.0,84,0.00,,,0.00,0.0,meteohub,2013-02-21 06:41:00,
2013-02-21 00:46:00,0.0,-3.6,30.51,East,100,0.0,0.0,84,0.00,,,0.00,0.0,meteohub,2013-02-21 06:46:00,
2013-02-21 00:51:00,-0.2,-3.6,30.51,East,100,0.0,0.0,85,0.00,,,0.00,0.0,meteohub,2013-02-21 06:51:00,
2013-02-21 00:56:00,0.0,-3.5,30.51,East,100,0.0,0.0,85,0.00,,,0.00,0.0,meteohub,2013-02-21 06:56:00,
2013-02-21 01:01:00,0.1,-3.1,30.52,East,100,0.0,0.0,86,0.00,,,0.00,0.0,meteohub,2013-02-21 07:01:00,
2013-02-21 01:06:00,0.9,-2.4,30.52,East,100,0.0,0.0,86,0.00,,,0.00,0.0,meteohub,2013-02-21 07:06:00,
2013-02-21 01:12:00,1.2,-2.2,30.52,East,100,0.0,0.0,85,0.00,,,0.00,0.0,meteohub,2013-02-21 07:12:00,
2013-02-21 01:17:00,1.2,-2.2,30.52,East,100,0.0,0.0,85,0.00,,,0.00,0.0,meteohub,2013-02-21 07:17:00,
2013-02-21 01:22:00,1.0,-2.7,30.52,East,100,0.0,0.0,84,0.00,,,0.00,0.0,meteohub,2013-02-21 07:22:00,
2013-02-21 01:27:00,1.2,-2.6,30.52,East,100,0.0,0.0,84,0.00,,,0.00,0.0,meteohub,2013-02-21 07:27:00,
2013-02-21 01:32:00,1.0,-2.7,30.52,East,100,0.0,0.0,84,0.00,,,0.00,0.0,meteohub,2013-02-21 07:32:00,
2013-02-21 01:37:00,1.0,-2.7,30.52,East,100,0.0,0.0,84,0.00,,,0.00,0.0,meteohub,2013-02-21 07:37:00,
2013-02-21 01:42:00,0.9,-2.9,30.52,East,100,0.0,0.0,84,0.00,,,0.00,0.0,meteohub,2013-02-21 07:42:00,
2013-02-21 01:47:00,0.3,-3.3,30.52,East,100,0.0,0.0,84,0.00,,,0.00,0.0,meteohub,2013-02-21 07:47:00,
2013-02-21 01:52:00,0.3,-3.1,30.53,East,100,0.0,0.0,85,0.00,,,0.00,0.0,meteohub,2013-02-21 07:52:00,
2013-02-21 01:57:00,-0.4,-4.0,30.53,East,100,0.0,0.0,84,0.00,,,0.00,0.0,meteohub,2013-02-21 07:57:00,
2013-02-21 02:02:00,-0.9,-4.5,30.53,East,100,0.0,0.0,84,0.00,,,0.00,0.0,meteohub,2013-02-21 08:02:00,
2013-02-21 02:07:00,-0.6,-3.8,30.53,East,100,0.0,0.0,86,0.00,,,0.00,0.0,meteohub,2013-02-21 08:07:00,
2013-02-21 02:12:00,-0.6,-4.0,30.53,East,100,0.0,0.0,85,0.00,,,0.00,0.0,meteohub,2013-02-21 08:12:00,
2013-02-21 02:17:00,-0.4,-3.6,30.53,East,100,0.0,0.0,86,0.00,,,0.00,0.0,meteohub,2013-02-21 08:17:00,
2013-02-21 02:22:00,-0.9,-4.4,30.53,East,100,0.0,0.0,85,0.00,,,0.00,0.0,meteohub,2013-02-21 08:22:00,
2013-02-21 02:27:00,-0.9,-4.4,30.53,East,100,0.0,0.0,85,0.00,,,0.00,0.0,meteohub,2013-02-21 08:27:00,
2013-02-21 02:32:00,-0.8,-4.0,30.53,East,100,0.0,0.0,86,0.00,,,0.00,0.0,meteohub,2013-02-21 08:32:00,
2013-02-21 02:37:00,-1.3,-4.7,30.53,East,100,0.0,0.0,85,0.00,,,0.00,0.0,meteohub,2013-02-21 08:37:00,
2013-02-21 02:42:00,-1.5,-4.7,30.53,East,100,0.0,0.0,86,0.00,,,0.00,0.0,meteohub,2013-02-21 08:42:00,
2013-02-21 02:47:00,-1.7,-4.9,30.53,East,100,0.0,0.0,86,0.00,,,0.00,0.0,meteohub,2013-02-21 08:47:00,
2013-02-21 02:52:00,-1.8,-5.3,30.53,East,100,0.0,0.0,85,0.00,,,0.00,0.0,meteohub,2013-02-21 08:52:00,
2013-02-21 02:57:00,-1.8,-5.1,30.53,East,100,0.0,0.0,86,0.00,,,0.00,0.0,meteohub,2013-02-21 08:57:00,
2013-02-21 03:02:00,-1.8,-5.1,30.53,East,100,0.0,0.0,86,0.00,,,0.00,0.0,meteohub,2013-02-21 09:02:00,
2013-02-21 03:07:00,-1.7,-4.9,30.53,East,100,0.0,0.0,86,0.00,,,0.00,0.0,meteohub,2013-02-21 09:07:00,
2013-02-21 03:12:00,-2.4,-5.8,30.52,East,100,0.0,0.0,85,0.00,,,0.00,0.0,meteohub,2013-02-21 09:12:00,
2013-02-21 03:17:00,-2.2,-5.3,30.52,East,100,0.0,0.0,86,0.00,,,0.00,0.0,meteohub,2013-02-21 09:17:00,
2013-02-21 03:22:00,-2.0,-5.3,30.52,East,100,0.0,0.0,86,0.00,,,0.00,0.0,meteohub,2013-02-21 09:22:00,
2013-02-21 03:27:00,-2.2,-5.3,30.51,East,100,0.0,0.0,86,0.00,,,0.00,0.0,meteohub,2013-02-21 09:27:00,
2013-02-21 03:32:00,-2.4,-5.4,30.51,East,100,0.0,0.0,86,0.00,,,0.00,0.0,meteohub,2013-02-21 09:32:00,
2013-02-21 03:37:00,-2.6,-6.0,30.51,East,100,0.0,0.0,85,0.00,,,0.00,0.0,meteohub,2013-02-21 09:37:00,
2013-02-21 03:42:00,-2.6,-6.0,30.51,East,100,0.0,0.0,85,0.00,,,0.00,0.0,meteohub,2013-02-21 09:42:00,
2013-02-21 03:47:00,-2.4,-5.4,30.51,East,100,0.0,0.0,86,0.00,,,0.00,0.0,meteohub,2013-02-21 09:47:00,
2013-02-21 03:52:00,-2.2,-5.3,30.51,East,100,0.0,0.0,86,0.00,,,0.00,0.0,meteohub,2013-02-21 09:52:00,
2013-02-21 03:57:00,-2.7,-6.2,30.50,East,100,0.0,0.0,85,0.00,,,0.00,0.0,meteohub,2013-02-21 09:57:00,
2013-02-21 04:02:00,-2.7,-6.2,30.50,East,100,0.0,0.0,85,0.00,,,0.00,0.0,meteohub,2013-02-21 10:02:00,
2013-02-21 04:07:00,-2.7,-6.2,30.49,East,99,0.0,0.0,85,0.00,,,0.00,0.0,meteohub,2013-02-21 10:07:00,
2013-02-21 04:12:00,-2.7,-6.2,30.49,East,99,0.0,0.0,85,0.00,,,0.00,0.0,meteohub,2013-02-21 10:12:00,
2013-02-21 04:17:00,-2.4,-5.4,30.48,East,99,0.0,0.0,86,0.00,,,0.00,0.0,meteohub,2013-02-21 10:17:00,
2013-02-21 04:22:00,-1.7,-4.9,30.47,East,99,0.0,1.0,86,0.00,,,0.00,0.0,meteohub,2013-02-21 10:22:00,
2013-02-21 04:27:00,-0.8,-3.6,30.47,East,99,0.0,1.0,87,0.00,,,0.00,0.0,meteohub,2013-02-21 10:27:00,
2013-02-21 04:32:00,0.0,-3.3,30.46,East,99,0.0,1.0,86,0.00,,,0.00,0.0,meteohub,2013-02-21 10:32:00,
2013-02-21 04:37:00,0.0,-3.5,30.46,East,99,0.0,1.0,85,0.00,,,0.00,0.0,meteohub,2013-02-21 10:37:00,
2013-02-21 04:42:00,-0.2,-3.6,30.46,East,99,0.0,1.0,85,0.00,,,0.00,0.0,meteohub,2013-02-21 10:42:00,
2013-02-21 04:47:00,0.1,-3.3,30.47,SE,141,0.0,0.0,85,0.00,,,0.00,0.0,meteohub,2013-02-21 10:47:00,
2013-02-21 04:52:00,0.1,-3.3,30.45,SE,135,0.0,1.0,85,0.00,,,0.00,0.0,meteohub,2013-02-21 10:52:00,
2013-02-21 04:57:00,0.9,-2.6,30.45,South,178,0.0,2.0,85,0.00,,,0.00,0.0,meteohub,2013-02-21 10:57:00,
2013-02-21 05:02:00,1.0,-2.4,30.46,South,173,0.0,3.0,85,0.00,,,0.00,0.0,meteohub,2013-02-21 11:02:00,
2013-02-21 05:07:00,1.2,-2.2,30.45,East,94,0.0,3.0,85,0.00,,,0.00,0.0,meteohub,2013-02-21 11:07:00,
2013-02-21 05:12:00,1.6,-2.2,30.44,WNW,290,0.0,3.0,84,0.00,,,0.00,0.0,meteohub,2013-02-21 11:12:00,
2013-02-21 05:17:00,1.8,-2.2,30.44,East,90,0.0,1.0,83,0.00,,,0.00,0.0,meteohub,2013-02-21 11:17:00,
2013-02-21 05:22:00,1.9,-2.0,30.43,NNW,342,1.0,2.0,83,0.00,,,0.00,0.0,meteohub,2013-02-21 11:22:00,
2013-02-21 05:27:00,1.9,-2.2,30.43,North,355,0.0,2.0,82,0.00,,,0.00,0.0,meteohub,2013-02-21 11:27:00,
2013-02-21 05:32:00,1.9,-2.2,30.43,East,101,0.0,2.0,82,0.00,,,0.00,0.0,meteohub,2013-02-21 11:32:00,
2013-02-21 05:37:00,1.8,-2.4,30.42,NNE,31,0.0,2.0,82,0.00,,,0.00,0.0,meteohub,2013-02-21 11:37:00,
2013-02-21 05:42:00,1.9,-2.2,30.43,ENE,75,0.0,4.0,82,0.00,,,0.00,0.0,meteohub,2013-02-21 11:42:00,
2013-02-21 05:47:00,1.9,-2.2,30.43,SW,219,0.0,4.0,82,0.00,,,0.00,0.0,meteohub,2013-02-21 11:47:00,
2013-02-21 05:52:00,2.1,-2.0,30.43,ENE,76,0.0,4.0,82,0.00,,,0.00,0.0,meteohub,2013-02-21 11:52:00,
2013-02-21 05:57:00,2.1,-2.0,30.44,SSW,210,0.0,2.0,82,0.00,,,0.00,0.0,meteohub,2013-02-21 11:57:00,
2013-02-21 06:02:00,1.9,-2.2,30.46,SSW,210,0.0,2.0,82,0.00,,,0.00,0.0,meteohub,2013-02-21 12:02:00,
2013-02-21 06:07:00,1.6,-2.6,30.47,ESE,123,0.0,2.0,82,0.00,,,0.00,0.0,meteohub,2013-02-21 12:07:00,
2013-02-21 06:12:00,1.4,-2.6,30.48,SE,124,0.0,1.0,83,0.00,,,0.00,0.0,meteohub,2013-02-21 12:12:00,
2013-02-21 06:17:00,1.2,-2.7,30.49,SE,124,0.0,1.0,83,0.00,,,0.00,0.0,meteohub,2013-02-21 12:17:00,
2013-02-21 06:22:00,1.2,-2.7,30.52,SE,124,1.0,1.0,83,0.00,,,0.00,0.0,meteohub,2013-02-21 12:22:00,
2013-02-21 06:27:00,1.0,-2.9,30.52,SE,124,0.0,1.0,83,0.00,,,0.00,0.0,meteohub,2013-02-21 12:27:00,
2013-02-21 06:32:00,1.4,-2.4,30.52,SSE,167,0.0,1.0,84,0.00,,,0.00,0.0,meteohub,2013-02-21 12:32:00,
2013-02-21 06:37:00,1.8,-2.0,30.52,SSE,167,0.0,2.0,84,0.00,,,0.00,0.0,meteohub,2013-02-21 12:37:00,
2013-02-21 06:42:00,1.8,-2.0,30.51,SSE,167,0.0,2.0,84,0.00,,,0.00,0.0,meteohub,2013-02-21 12:42:00,
2013-02-21 06:47:00,2.5,-1.3,30.50,East,95,0.0,0.0,84,0.00,,,0.00,0.0,meteohub,2013-02-21 12:47:00,
2013-02-21 06:52:00,2.8,-1.1,30.51,ENE,76,0.0,2.0,83,0.00,,,0.00,0.0,meteohub,2013-02-21 12:52:00,
2013-02-21 06:56:00,2.8,-1.1,30.51,ESE,113,0.0,2.0,83,0.00,,,0.00,0.0,meteohub,2013-02-21 12:56:00,
2013-02-21 07:02:00,2.8,-1.1,30.51,ESE,106,0.0,2.0,83,0.00,,,0.00,0.0,meteohub,2013-02-21 13:02:00,
2013-02-21 07:07:00,3.0,-1.3,30.50,ENE,77,0.0,4.0,82,0.00,,,0.00,0.0,meteohub,2013-02-21 13:07:00,
2013-02-21 07:12:00,3.2,-1.1,30.50,South,176,0.0,4.0,82,0.00,,,0.00,0.0,meteohub,2013-02-21 13:12:00,
2013-02-21 07:17:00,2.8,-1.5,30.50,South,176,0.0,4.0,82,0.00,,,0.00,0.0,meteohub,2013-02-21 13:17:00,
2013-02-21 07:22:00,2.7,-1.7,30.50,South,176,0.0,1.0,82,0.00,,,0.00,5.0,meteohub,2013-02-21 13:22:00,
2013-02-21 07:27:00,2.5,-1.8,30.49,South,176,0.0,2.0,82,0.00,,,0.00,9.0,meteohub,2013-02-21 13:27:00,
2013-02-21 07:32:00,2.5,-1.5,30.50,South,176,0.0,2.0,83,0.00,,,0.00,14.0,meteohub,2013-02-21 13:32:00,
2013-02-21 07:37:00,2.5,-1.5,30.49,South,176,0.0,0.0,83,0.00,,,0.00,21.0,meteohub,2013-02-21 13:37:00,
2013-02-21 07:42:00,2.5,-1.5,30.49,South,176,0.0,0.0,83,0.00,,,0.00,26.0,meteohub,2013-02-21 13:42:00,
2013-02-21 07:47:00,2.5,-1.5,30.50,South,188,0.0,0.0,83,0.00,,,0.00,33.0,meteohub,2013-02-21 13:47:00,
2013-02-21 07:52:00,2.7,-1.3,30.49,South,188,0.0,2.0,83,0.00,,,0.00,39.0,meteohub,2013-02-21 13:52:00,
2013-02-21 07:57:00,2.8,-1.5,30.49,West,266,0.0,2.0,82,0.00,,,0.00,47.0,meteohub,2013-02-21 13:57:00,
2013-02-21 08:02:00,3.4,-0.9,30.48,NNE,26,0.0,2.0,82,0.00,,,0.00,58.0,meteohub,2013-02-21 14:02:00,
2013-02-21 08:07:00,3.6,-0.8,30.47,NNE,29,0.0,3.0,82,0.00,,,0.00,67.0,meteohub,2013-02-21 14:07:00,
2013-02-21 08:12:00,3.9,-0.4,30.47,ENE,57,2.0,3.0,82,0.00,,,0.00,74.0,meteohub,2013-02-21 14:12:00,
2013-02-21 08:17:00,4.5,0.1,30.47,NNE,26,0.0,3.0,82,0.00,,,0.00,79.0,meteohub,2013-02-21 14:17:00,
2013-02-21 08:22:00,4.6,0.1,30.47,North,355,1.0,3.0,81,0.00,,,0.00,79.0,meteohub,2013-02-21 14:22:00,
2013-02-21 08:27:00,4.6,0.1,30.47,ENE,57,1.0,3.0,81,0.00,,,0.00,84.0,meteohub,2013-02-21 14:27:00,
2013-02-21 08:32:00,4.6,0.1,30.47,NNE,18,0.0,3.0,81,0.00,,,0.00,90.0,meteohub,2013-02-21 14:32:00,
2013-02-21 08:37:00,4.6,-0.2,30.47,NNE,33,2.0,3.0,80,0.00,,,0.00,97.0,meteohub,2013-02-21 14:37:00,
2013-02-21 08:42:00,4.8,0.3,30.47,NNW,340,1.0,3.0,81,0.00,,,0.00,104.0,meteohub,2013-02-21 14:42:00,
2013-02-21 08:47:00,5.2,0.7,30.47,North,355,0.0,3.0,81,0.00,,,0.00,111.0,meteohub,2013-02-21 14:47:00,
2013-02-21 08:52:00,5.7,0.9,30.47,ENE,61,1.0,3.0,80,0.00,,,0.00,116.0,meteohub,2013-02-21 14:52:00,
2013-02-21 08:57:00,6.1,1.2,30.46,NE,53,0.0,3.0,80,0.00,,,0.00,127.0,meteohub,2013-02-21 14:57:00,
2013-02-21 09:02:00,6.3,1.4,30.46,North,355,2.0,3.0,80,0.00,,,0.00,134.0,meteohub,2013-02-21 15:02:00,
2013-02-21 09:07:00,6.6,1.8,30.46,NE,43,0.0,3.0,80,0.00,,,0.00,146.0,meteohub,2013-02-21 15:07:00,
2013-02-21 09:12:00,7.2,2.3,30.46,ENE,57,1.0,3.0,80,0.00,,,0.00,139.0,meteohub,2013-02-21 15:12:00,
2013-02-21 09:17:00,7.5,2.3,30.45,NE,50,0.0,3.0,79,0.00,,,0.00,151.0,meteohub,2013-02-21 15:17:00,
2013-02-21 09:22:00,8.1,2.8,30.46,NE,53,2.0,4.0,79,0.00,,,0.00,183.0,meteohub,2013-02-21 15:22:00,
2013-02-21 09:27:00,8.4,3.2,30.46,SSE,150,1.0,4.0,79,0.00,,,0.00,162.0,meteohub,2013-02-21 15:27:00,
2013-02-21 09:32:00,9.0,3.6,30.46,SSE,159,1.0,5.0,78,0.00,,,0.00,149.0,meteohub,2013-02-21 15:32:00,
2013-02-21 09:37:00,9.3,3.9,30.47,ENE,61,3.0,5.0,78,0.00,,,0.00,153.0,meteohub,2013-02-21 15:37:00,
2013-02-21 09:42:00,9.5,4.1,30.47,ESE,113,3.0,4.0,78,0.00,,,0.00,148.0,meteohub,2013-02-21 15:42:00,
2013-02-21 09:47:00,9.9,4.5,30.47,NE,49,0.0,6.0,78,0.00,,,0.00,127.0,meteohub,2013-02-21 15:47:00,
2013-02-21 09:52:00,9.9,4.5,30.48,NE,48,1.0,6.0,78,0.00,,,0.00,160.0,meteohub,2013-02-21 15:52:00,
2013-02-21 09:57:00,10.0,4.6,30.47,ENE,78,1.0,6.0,78,0.00,,,0.00,181.0,meteohub,2013-02-21 15:57:00,
2013-02-21 10:02:00,10.2,4.8,30.47,SSW,202,2.0,3.0,78,0.00,,,0.00,192.0,meteohub,2013-02-21 16:02:00,
2013-02-21 10:07:00,10.6,4.8,30.47,ESE,107,0.0,3.0,77,0.00,,,0.00,218.0,meteohub,2013-02-21 16:07:00,
2013-02-21 10:12:00,10.9,5.2,30.47,ENE,67,0.0,5.0,77,0.00,,,0.00,223.0,meteohub,2013-02-21 16:12:00,
2013-02-21 10:17:00,11.5,5.7,30.47,East,80,2.0,5.0,77,0.00,,,0.00,232.0,meteohub,2013-02-21 16:17:00,
2013-02-21 10:22:00,11.7,5.9,30.47,East,95,2.0,5.0,77,0.00,,,0.00,241.0,meteohub,2013-02-21 16:22:00,
2013-02-21 10:27:00,11.7,5.5,30.47,WSW,253,1.0,5.0,76,0.00,,,0.00,232.0,meteohub,2013-02-21 16:27:00,
2013-02-21 10:32:00,11.8,5.7,30.46,East,80,0.0,5.0,76,0.00,,,0.00,229.0,meteohub,2013-02-21 16:32:00,
2013-02-21 10:37:00,11.8,5.7,30.47,SW,217,4.0,5.0,76,0.00,,,0.00,246.0,meteohub,2013-02-21 16:37:00,
2013-02-21 10:42:00,12.0,5.9,30.47,NE,49,0.0,5.0,76,0.00,,,0.00,246.0,meteohub,2013-02-21 16:42:00,
2013-02-21 10:47:00,12.2,6.1,30.47,SSW,192,2.0,5.0,76,0.00,,,0.00,243.0,meteohub,2013-02-21 16:47:00,
2013-02-21 10:52:00,12.4,6.3,30.48,NW,311,2.0,5.0,76,0.00,,,0.00,269.0,meteohub,2013-02-21 16:52:00,
2013-02-21 10:57:00,12.4,6.3,30.47,SSE,153,4.0,5.0,76,0.00,,,0.00,285.0,meteohub,2013-02-21 16:57:00,
2013-02-21 11:02:00,12.7,6.6,30.47,NNE,28,4.0,5.0,76,0.00,,,0.00,304.0,meteohub,2013-02-21 17:02:00,
2013-02-21 11:07:00,13.3,7.2,30.47,SE,135,3.0,5.0,76,0.00,,,0.00,304.0,meteohub,2013-02-21 17:07:00,
2013-02-21 11:12:00,13.5,7.3,30.46,NNE,12,3.0,6.0,76,0.00,,,0.00,341.0,meteohub,2013-02-21 17:12:00,
2013-02-21 11:17:00,13.6,7.2,30.46,West,275,3.0,6.0,75,0.00,,,0.00,341.0,meteohub,2013-02-21 17:17:00,
2013-02-21 11:23:00,13.8,7.7,30.45,NNW,341,0.0,6.0,76,0.00,,,0.00,341.0,meteohub,2013-02-21 17:23:00,
2013-02-21 11:28:00,14.4,7.9,30.45,NNW,338,2.0,5.0,75,0.00,,,0.00,366.0,meteohub,2013-02-21 17:28:00,
2013-02-21 11:33:00,14.5,8.1,30.45,North,355,3.0,5.0,75,0.00,,,0.00,378.0,meteohub,2013-02-21 17:33:00,
2013-02-21 11:38:00,14.5,8.1,30.45,NNE,20,2.0,6.0,75,0.00,,,0.00,413.0,meteohub,2013-02-21 17:38:00,
2013-02-21 11:43:00,14.9,8.4,30.45,NE,36,4.0,6.0,75,0.00,,,0.00,424.0,meteohub,2013-02-21 17:43:00,
2013-02-21 11:48:00,15.3,8.8,30.45,NNE,22,1.0,8.0,75,0.00,,,0.00,385.0,meteohub,2013-02-21 17:48:00,
2013-02-21 11:53:00,15.4,9.0,30.45,North,11,2.0,8.0,75,0.00,,,0.00,388.0,meteohub,2013-02-21 17:53:00,
2013-02-21 11:58:00,15.3,8.4,30.45,NE,36,1.0,8.0,74,0.00,,,0.00,385.0,meteohub,2013-02-21 17:58:00,
2013-02-21 12:03:00,15.4,9.0,30.44,NE,52,0.0,5.0,75,0.00,,,0.00,380.0,meteohub,2013-02-21 18:03:00,
2013-02-21 12:08:00,15.6,9.1,30.44,NNE,33,2.0,4.0,75,0.00,,,0.00,367.0,meteohub,2013-02-21 18:08:00,
2013-02-21 12:13:00,15.8,9.3,30.43,NNW,327,2.0,8.0,75,0.00,,,0.00,352.0,meteohub,2013-02-21 18:13:00,
2013-02-21 12:18:00,15.6,9.1,30.43,ESE,115,1.0,8.0,75,0.00,,,0.00,367.0,meteohub,2013-02-21 18:18:00,
2013-02-21 12:23:00,16.2,9.3,30.43,NNW,347,2.0,8.0,74,0.00,,,0.00,397.0,meteohub,2013-02-21 18:23:00,
2013-02-21 12:28:00,16.3,9.9,30.42,NE,38,2.0,5.0,75,0.00,,,0.00,403.0,meteohub,2013-02-21 18:28:00,
2013-02-21 12:33:00,16.5,9.7,30.42,North,0,4.0,5.0,74,0.00,,,0.00,394.0,meteohub,2013-02-21 18:33:00,
2013-02-21 12:38:00,16.5,10.0,30.42,NNE,12,2.0,8.0,75,0.00,,,0.00,378.0,meteohub,2013-02-21 18:38:00,
2013-02-21 12:43:00,16.7,9.9,30.42,NNW,344,5.0,8.0,74,0.00,,,0.00,369.0,meteohub,2013-02-21 18:43:00,
2013-02-21 12:48:00,16.5,10.0,30.42,NW,315,2.0,8.0,75,0.00,,,0.00,380.0,meteohub,2013-02-21 18:48:00,
2013-02-21 12:53:00,16.3,9.5,30.42,ESE,104,2.0,6.0,74,0.00,,,0.00,429.0,meteohub,2013-02-21 18:53:00,
2013-02-21 12:58:00,17.1,10.6,30.41,North,355,1.0,6.0,75,0.00,,,0.00,373.0,meteohub,2013-02-21 18:58:00,
2013-02-21 13:03:00,16.5,9.7,30.41,NNE,13,5.0,5.0,74,0.00,,,0.00,357.0,meteohub,2013-02-21 19:03:00,
2013-02-21 13:08:00,16.7,10.2,30.41,North,5,4.0,7.0,75,0.00,,,0.00,366.0,meteohub,2013-02-21 19:08:00,
2013-02-21 13:13:00,16.5,10.0,30.40,North,5,4.0,7.0,75,0.00,,,0.00,350.0,meteohub,2013-02-21 19:13:00,
2013-02-21 13:18:00,16.3,9.9,30.40,NNW,346,2.0,7.0,75,0.00,,,0.00,334.0,meteohub,2013-02-21 19:18:00,
2013-02-21 13:23:00,16.3,9.9,30.40,East,92,1.0,6.0,75,0.00,,,0.00,376.0,meteohub,2013-02-21 19:23:00,
2013-02-21 13:28:00,16.7,10.2,30.40,NE,39,1.0,6.0,75,0.00,,,0.00,362.0,meteohub,2013-02-21 19:28:00,
2013-02-21 13:33:00,16.7,10.2,30.40,North,0,3.0,6.0,75,0.00,,,0.00,373.0,meteohub,2013-02-21 19:33:00,
2013-02-21 13:38:00,17.2,10.8,30.39,NE,41,1.0,6.0,75,0.00,,,0.00,352.0,meteohub,2013-02-21 19:38:00,
2013-02-21 13:43:00,17.1,10.6,30.39,North,5,2.0,4.0,75,0.00,,,0.00,316.0,meteohub,2013-02-21 19:43:00,
2013-02-21 13:48:00,17.1,10.6,30.39,North,355,4.0,4.0,75,0.00,,,0.00,322.0,meteohub,2013-02-21 19:48:00,
2013-02-21 13:53:00,17.4,10.9,30.38,North,0,3.0,5.0,75,0.00,,,0.00,357.0,meteohub,2013-02-21 19:53:00,
2013-02-21 13:58:00,17.4,10.9,30.38,NNE,22,3.0,7.0,75,0.00,,,0.00,362.0,meteohub,2013-02-21 19:58:00,
2013-02-21 14:04:00,17.4,10.6,30.38,NE,53,1.0,7.0,74,0.00,,,0.00,396.0,meteohub,2013-02-21 20:04:00,
2013-02-21 14:09:00,18.0,11.3,30.37,NNW,339,4.0,7.0,75,0.00,,,0.00,343.0,meteohub,2013-02-21 20:09:00,
2013-02-21 14:13:00,18.0,11.3,30.37,NE,39,2.0,7.0,75,0.00,,,0.00,329.0,meteohub,2013-02-21 20:13:00,
2013-02-21 14:19:00,18.0,11.1,30.36,NE,41,1.0,7.0,74,0.00,,,0.00,320.0,meteohub,2013-02-21 20:19:00,
2013-02-21 14:24:00,18.0,11.3,30.36,NE,36,3.0,7.0,75,0.00,,,0.00,302.0,meteohub,2013-02-21 20:24:00,
2013-02-21 14:29:00,18.0,11.7,30.35,North,5,2.0,7.0,76,0.00,,,0.00,302.0,meteohub,2013-02-21 20:29:00,
2013-02-21 14:34:00,18.3,11.7,30.35,NE,44,0.0,7.0,75,0.00,,,0.00,297.0,meteohub,2013-02-21 20:34:00,
2013-02-21 14:39:00,18.1,11.3,30.35,NNE,18,3.0,7.0,74,0.00,,,0.00,278.0,meteohub,2013-02-21 20:39:00,
2013-02-21 14:44:00,18.3,11.7,30.35,NE,36,3.0,7.0,75,0.00,,,0.00,260.0,meteohub,2013-02-21 20:44:00,
2013-02-21 14:49:00,18.5,11.8,30.35,NE,34,1.0,7.0,75,0.00,,,0.00,251.0,meteohub,2013-02-21 20:49:00,
2013-02-21 14:54:00,18.5,11.8,30.35,North,350,1.0,7.0,75,0.00,,,0.00,243.0,meteohub,2013-02-21 20:54:00,
2013-02-21 14:59:00,18.3,11.7,30.34,NNE,30,1.0,6.0,75,0.00,,,0.00,230.0,meteohub,2013-02-21 20:59:00,
2013-02-21 15:04:00,18.1,11.5,30.34,North,350,6.0,8.0,75,0.00,,,0.00,221.0,meteohub,2013-02-21 21:04:00,
2013-02-21 15:09:00,18.1,11.5,30.34,North,355,4.0,8.0,75,0.00,,,0.00,216.0,meteohub,2013-02-21 21:09:00,
2013-02-21 15:14:00,18.1,11.5,30.34,ENE,64,4.0,8.0,75,0.00,,,0.00,202.0,meteohub,2013-02-21 21:14:00,
2013-02-21 15:19:00,18.1,11.3,30.34,North,5,4.0,8.0,74,0.00,,,0.00,188.0,meteohub,2013-02-21 21:19:00,
2013-02-21 15:24:00,18.1,11.3,30.34,NNW,348,1.0,7.0,74,0.00,,,0.00,181.0,meteohub,2013-02-21 21:24:00,
2013-02-21 15:29:00,18.1,11.3,30.34,NNE,21,5.0,7.0,74,0.00,,,0.00,172.0,meteohub,2013-02-21 21:29:00,
2013-02-21 15:34:00,18.3,11.5,30.34,North,5,3.0,7.0,74,0.00,,,0.00,163.0,meteohub,2013-02-21 21:34:00,
2013-02-21 15:39:00,18.1,11.3,30.33,NNW,348,4.0,6.0,74,0.00,,,0.00,160.0,meteohub,2013-02-21 21:39:00,
2013-02-21 15:44:00,18.1,10.9,30.34,NNW,344,3.0,6.0,73,0.00,,,0.00,153.0,meteohub,2013-02-21 21:44:00,
2013-02-21 15:49:00,18.1,10.9,30.34,East,98,3.0,6.0,73,0.00,,,0.00,146.0,meteohub,2013-02-21 21:49:00,
2013-02-21 15:54:00,18.3,11.5,30.34,North,355,0.0,6.0,74,0.00,,,0.00,135.0,meteohub,2013-02-21 21:54:00,
2013-02-21 15:59:00,18.3,11.5,30.34,ENE,57,0.0,5.0,74,0.00,,,0.00,123.0,meteohub,2013-02-21 21:59:00,
2013-02-21 16:04:00,18.3,11.5,30.34,North,0,2.0,5.0,74,0.00,,,0.00,113.0,meteohub,2013-02-21 22:04:00,
2013-02-21 16:09:00,18.1,10.9,30.34,NNE,13,3.0,6.0,73,0.00,,,0.00,105.0,meteohub,2013-02-21 22:09:00,
2013-02-21 16:14:00,18.1,11.3,30.34,NE,37,2.0,6.0,74,0.00,,,0.00,98.0,meteohub,2013-02-21 22:14:00,
2013-02-21 16:19:00,18.1,11.3,30.33,NNE,27,1.0,6.0,74,0.00,,,0.00,91.0,meteohub,2013-02-21 22:19:00,
2013-02-21 16:24:00,18.1,11.3,30.33,West,273,2.0,5.0,74,0.00,,,0.00,84.0,meteohub,2013-02-21 22:24:00,
2013-02-21 16:29:00,18.1,11.3,30.33,NNE,28,2.0,5.0,74,0.00,,,0.00,76.0,meteohub,2013-02-21 22:29:00,
2013-02-21 16:34:00,18.0,11.1,30.33,East,97,1.0,5.0,74,0.00,,,0.00,69.0,meteohub,2013-02-21 22:34:00,
2013-02-21 16:39:00,18.0,11.1,30.33,NNE,33,0.0,5.0,74,0.00,,,0.00,63.0,meteohub,2013-02-21 22:39:00,
2013-02-21 16:45:00,18.0,11.1,30.33,North,10,0.0,5.0,74,0.00,,,0.00,60.0,meteohub,2013-02-21 22:45:00,
2013-02-21 16:50:00,18.0,11.3,30.33,ENE,73,2.0,5.0,75,0.00,,,0.00,56.0,meteohub,2013-02-21 22:50:00,
2013-02-21 16:55:00,18.1,11.5,30.32,NNE,28,0.0,5.0,75,0.00,,,0.00,53.0,meteohub,2013-02-21 22:55:00,
2013-02-21 17:00:00,18.1,11.5,30.32,North,5,1.0,5.0,75,0.00,,,0.00,46.0,meteohub,2013-02-21 23:00:00,
2013-02-21 17:05:00,18.0,11.3,30.32,NE,34,1.0,3.0,75,0.00,,,0.00,39.0,meteohub,2013-02-21 23:05:00,
2013-02-21 17:10:00,18.0,11.3,30.32,NNE,24,0.0,4.0,75,0.00,,,0.00,33.0,meteohub,2013-02-21 23:10:00,
2013-02-21 17:15:00,18.1,11.5,30.32,NNW,336,0.0,4.0,75,0.00,,,0.00,30.0,meteohub,2013-02-21 23:15:00,
2013-02-21 17:20:00,18.1,11.5,30.32,North,0,1.0,4.0,75,0.00,,,0.00,25.0,meteohub,2013-02-21 23:20:00,
2013-02-21 17:25:00,18.1,11.5,30.31,NNE,31,2.0,4.0,75,0.00,,,0.00,21.0,meteohub,2013-02-21 23:25:00,
2013-02-21 17:30:00,18.0,11.7,30.31,NNE,30,0.0,3.0,76,0.00,,,0.00,18.0,meteohub,2013-02-21 23:30:00,
2013-02-21 17:35:00,18.0,11.7,30.31,NNE,16,1.0,4.0,76,0.00,,,0.00,14.0,meteohub,2013-02-21 23:35:00,
2013-02-21 17:40:00,18.0,11.7,30.31,NE,41,1.0,5.0,76,0.00,,,0.00,11.0,meteohub,2013-02-21 23:40:00,
2013-02-21 17:45:00,18.0,11.7,30.31,NNE,24,1.0,5.0,76,0.00,,,0.00,7.0,meteohub,2013-02-21 23:45:00,
2013-02-21 17:50:00,18.1,11.5,30.31,NNE,29,1.0,5.0,75,0.00,,,0.00,5.0,meteohub,2013-02-21 23:50:00,
2013-02-21 17:55:00,18.1,11.5,30.31,NNE,32,1.0,4.0,75,0.00,,,0.00,0.0,meteohub,2013-02-21 23:55:00,
2013-02-21 18:00:00,18.1,11.8,30.31,NE,42,0.0,4.0,76,0.00,,,0.00,0.0,meteohub,2013-02-22 00:00:00,
2013-02-21 18:05:00,18.1,11.8,30.31,NNW,334,1.0,4.0,76,0.00,,,0.00,0.0,meteohub,2013-02-22 00:05:00,
2013-02-21 18:10:00,18.1,11.8,30.31,NE,40,2.0,4.0,76,0.00,,,0.00,0.0,meteohub,2013-02-22 00:10:00,
2013-02-21 18:15:00,18.1,12.2,30.31,NNE,33,0.0,3.0,77,0.00,,,0.00,0.0,meteohub,2013-02-22 00:15:00,
2013-02-21 18:20:00,18.1,12.2,30.31,NNE,12,3.0,6.0,77,0.00,,,0.00,0.0,meteohub,2013-02-22 00:20:00,
2013-02-21 18:25:00,18.1,11.8,30.31,NNE,30,2.0,4.0,76,0.00,,,0.00,0.0,meteohub,2013-02-22 00:25:00,
2013-02-21 18:30:00,18.1,11.8,30.31,East,81,0.0,4.0,76,0.00,,,0.00,0.0,meteohub,2013-02-22 00:30:00,
2013-02-21 18:35:00,18.1,11.5,30.31,NNW,346,3.0,4.0,75,0.00,,,0.00,0.0,meteohub,2013-02-22 00:35:00,
2013-02-21 18:40:00,18.1,11.3,30.31,NNE,30,2.0,5.0,74,0.00,,,0.00,0.0,meteohub,2013-02-22 00:40:00,
2013-02-21 18:45:00,18.1,11.3,30.30,North,5,0.0,5.0,74,0.00,,,0.00,0.0,meteohub,2013-02-22 00:45:00,
2013-02-21 18:50:00,18.1,11.3,30.30,NNW,327,1.0,5.0,74,0.00,,,0.00,0.0,meteohub,2013-02-22 00:50:00,
2013-02-21 18:55:00,18.1,11.3,30.30,NNW,344,2.0,4.0,74,0.00,,,0.00,0.0,meteohub,2013-02-22 00:55:00,
2013-02-21 19:00:00,18.1,11.3,30.30,North,5,3.0,4.0,74,0.00,,,0.00,0.0,meteohub,2013-02-22 01:00:00,
2013-02-21 19:05:00,18.0,11.1,30.29,NE,35,1.0,6.0,74,0.00,,,0.00,0.0,meteohub,2013-02-22 01:05:00,
2013-02-21 19:10:00,18.0,11.1,30.29,NNE,26,4.0,6.0,74,0.00,,,0.00,0.0,meteohub,2013-02-22 01:10:00,
2013-02-21 19:15:00,18.0,11.1,30.29,North,350,4.0,6.0,74,0.00,,,0.00,0.0,meteohub,2013-02-22 01:15:00,
2013-02-21 19:20:00,17.8,11.1,30.29,North,0,1.0,6.0,75,0.00,,,0.00,0.0,meteohub,2013-02-22 01:20:00,
2013-02-21 19:25:00,17.8,11.5,30.29,NNE,12,0.0,6.0,76,0.00,,,0.00,0.0,meteohub,2013-02-22 01:25:00,
2013-02-21 19:30:00,17.8,11.5,30.28,NNE,30,2.0,5.0,76,0.00,,,0.00,0.0,meteohub,2013-02-22 01:30:00,
2013-02-21 19:35:00,17.6,11.7,30.28,NE,42,1.0,4.0,77,0.00,,,0.00,0.0,meteohub,2013-02-22 01:35:00,
2013-02-21 19:40:00,17.6,11.3,30.28,ENE,67,1.0,4.0,76,0.00,,,0.00,0.0,meteohub,2013-02-22 01:40:00,
2013-02-21 19:45:00,17.8,11.5,30.28,North,355,2.0,5.0,76,0.00,,,0.00,0.0,meteohub,2013-02-22 01:45:00,
2013-02-21 19:50:00,17.8,11.5,30.28,NE,45,3.0,6.0,76,0.00,,,0.00,0.0,meteohub,2013-02-22 01:50:00,
2013-02-21 19:55:00,17.6,11.3,30.27,North,0,0.0,6.0,76,0.00,,,0.00,0.0,meteohub,2013-02-22 01:55:00,
2013-02-21 20:01:00,17.6,11.3,30.27,NE,36,3.0,5.0,76,0.00,,,0.00,0.0,meteohub,2013-02-22 02:01:00,
2013-02-21 20:06:00,17.6,11.3,30.27,NNE,15,3.0,6.0,76,0.00,,,0.00,0.0,meteohub,2013-02-22 02:06:00,
2013-02-21 20:11:00,17.6,11.3,30.27,NNW,342,5.0,6.0,76,0.00,,,0.00,0.0,meteohub,2013-02-22 02:11:00,
2013-02-21 20:16:00,17.6,11.3,30.26,NNE,13,2.0,5.0,76,0.00,,,0.00,0.0,meteohub,2013-02-22 02:16:00,
2013-02-21 20:21:00,17.6,11.3,30.26,NE,42,2.0,6.0,76,0.00,,,0.00,0.0,meteohub,2013-02-22 02:21:00,
2013-02-21 20:26:00,17.6,11.3,30.26,North,0,2.0,6.0,76,0.00,,,0.00,0.0,meteohub,2013-02-22 02:26:00,
2013-02-21 20:31:00,17.8,11.5,30.25,North,355,5.0,5.0,76,0.00,,,0.00,0.0,meteohub,2013-02-22 02:31:00,
2013-02-21 20:36:00,17.8,11.1,30.25,NE,36,2.0,7.0,75,0.00,,,0.00,0.0,meteohub,2013-02-22 02:36:00,
2013-02-21 20:41:00,17.8,11.1,30.25,North,355,4.0,7.0,75,0.00,,,0.00,0.0,meteohub,2013-02-22 02:41:00,
2013-02-21 20:46:00,17.8,11.1,30.25,North,10,2.0,7.0,75,0.00,,,0.00,0.0,meteohub,2013-02-22 02:46:00,
2013-02-21 20:51:00,17.8,11.1,30.25,North,9,3.0,5.0,75,0.00,,,0.00,0.0,meteohub,2013-02-22 02:51:00,
2013-02-21 20:56:00,17.8,11.1,30.25,NE,35,2.0,6.0,75,0.00,,,0.00,0.0,meteohub,2013-02-22 02:56:00,
2013-02-21 21:01:00,18.0,11.3,30.24,NNE,26,2.0,6.0,75,0.00,,,0.00,0.0,meteohub,2013-02-22 03:01:00,
2013-02-21 21:06:00,18.0,11.7,30.24,North,355,3.0,6.0,76,0.00,,,0.00,0.0,meteohub,2013-02-22 03:06:00,
2013-02-21 21:11:00,18.0,11.7,30.24,NNW,331,1.0,6.0,76,0.00,,,0.00,0.0,meteohub,2013-02-22 03:11:00,
2013-02-21 21:16:00,18.0,11.7,30.23,NNE,22,0.0,5.0,76,0.00,,,0.00,0.0,meteohub,2013-02-22 03:16:00,
2013-02-21 21:21:00,18.0,11.7,30.23,NNE,19,2.0,7.0,76,0.00,,,0.00,0.0,meteohub,2013-02-22 03:21:00,
2013-02-21 21:26:00,18.0,11.7,30.23,North,355,3.0,7.0,76,0.00,,,0.00,0.0,meteohub,2013-02-22 03:26:00,
2013-02-21 21:31:00,18.0,11.7,30.24,NNE,30,4.0,7.0,76,0.00,,,0.00,0.0,meteohub,2013-02-22 03:31:00,
2013-02-21 21:36:00,18.1,11.8,30.23,NNE,27,1.0,5.0,76,0.00,,,0.00,0.0,meteohub,2013-02-22 03:36:00,
2013-02-21 21:41:00,18.1,11.8,30.23,North,355,2.0,8.0,76,0.00,,,0.00,0.0,meteohub,2013-02-22 03:41:00,
2013-02-21 21:46:00,18.1,11.8,30.23,SE,132,1.0,8.0,76,0.00,,,0.00,0.0,meteohub,2013-02-22 03:46:00,
2013-02-21 21:51:00,18.1,11.8,30.23,NNE,20,0.0,8.0,76,0.00,,,0.00,0.0,meteohub,2013-02-22 03:51:00,
2013-02-21 21:56:00,18.1,12.2,30.23,NNW,336,0.0,3.0,77,0.00,,,0.00,0.0,meteohub,2013-02-22 03:56:00,
2013-02-21 22:01:00,18.1,12.2,30.23,SE,138,0.0,3.0,77,0.00,,,0.00,0.0,meteohub,2013-02-22 04:01:00,
2013-02-21 22:06:00,18.1,12.2,30.23,SE,137,1.0,2.0,77,0.00,,,0.00,0.0,meteohub,2013-02-22 04:06:00,
2013-02-21 22:11:00,18.1,12.2,30.23,SE,137,0.0,2.0,77,0.00,,,0.00,0.0,meteohub,2013-02-22 04:11:00,
2013-02-21 22:16:00,18.3,12.4,30.23,NNE,33,0.0,2.0,77,0.00,,,0.00,0.0,meteohub,2013-02-22 04:16:00,
2013-02-21 22:21:00,18.3,12.4,30.23,NNE,33,0.0,2.0,77,0.00,,,0.00,0.0,meteohub,2013-02-22 04:21:00,
2013-02-21 22:26:00,18.1,12.4,30.23,NNE,33,0.0,2.0,78,0.00,,,0.00,0.0,meteohub,2013-02-22 04:26:00,
2013-02-21 22:31:00,18.0,12.2,30.23,NNE,33,0.0,2.0,78,0.00,,,0.00,0.0,meteohub,2013-02-22 04:31:00,
2013-02-21 22:36:00,18.0,12.2,30.22,NNE,33,0.0,1.0,78,0.00,,,0.00,0.0,meteohub,2013-02-22 04:36:00,
2013-02-21 22:41:00,18.0,12.6,30.22,NNE,33,0.0,0.0,79,0.00,,,0.00,0.0,meteohub,2013-02-22 04:41:00,
2013-02-21 22:46:00,18.0,12.9,30.22,NNE,33,0.0,0.0,80,0.00,,,0.00,0.0,meteohub,2013-02-22 04:46:00,
2013-02-21 22:51:00,18.0,12.9,30.22,NNE,33,0.0,0.0,80,0.00,,,0.00,0.0,meteohub,2013-02-22 04:51:00,
2013-02-21 22:56:00,18.1,12.7,30.22,NNE,33,0.0,1.0,79,0.00,,,0.00,0.0,meteohub,2013-02-22 04:56:00,
2013-02-21 23:00:00,18.1,12.7,30.22,NNE,33,0.0,1.0,79,0.00,,,0.00,0.0,meteohub,2013-02-22 05:00:00,
2013-02-21 23:05:00,18.3,12.9,30.21,NNE,33,0.0,1.0,79,0.00,,,0.00,0.0,meteohub,2013-02-22 05:05:00,
2013-02-21 23:10:00,18.3,12.9,30.21,NNE,33,0.0,1.0,79,0.00,,,0.00,0.0,meteohub,2013-02-22 05:10:00,
2013-02-21 23:15:00,18.3,12.9,30.20,NNE,33,0.0,2.0,79,0.00,,,0.00,0.0,meteohub,2013-02-22 05:15:00,
2013-02-21 23:20:00,18.3,12.9,30.20,NNE,33,0.0,2.0,79,0.00,,,0.00,0.0,meteohub,2013-02-22 05:20:00,
2013-02-21 23:25:00,18.3,12.9,30.20,NE,40,0.0,2.0,79,0.00,,,0.00,0.0,meteohub,2013-02-22 05:25:00,
2013-02-21 23:30:00,18.3,12.9,30.20,NE,40,0.0,2.0,79,0.00,,,0.00,0.0,meteohub,2013-02-22 05:30:00,
2013-02-21 23:35:00,18.3,12.9,30.19,NE,40,0.0,2.0,79,0.00,,,0.00,0.0,meteohub,2013-02-22 05:35:00,
2013-02-21 23:40:00,18.3,12.9,30.19,NE,40,0.0,2.0,79,0.00,,,0.00,0.0,meteohub,2013-02-22 05:40:00,
2013-02-21 23:45:00,18.3,13.3,30.19,NE,40,0.0,2.0,80,0.00,,,0.00,0.0,meteohub,2013-02-22 05:45:00,
2013-02-21 23:50:00,18.3,12.9,30.19,NE,40,0.0,2.0,79,0.00,,,0.00,0.0,meteohub,2013-02-22 05:50:00,
2013-02-21 23:55:00,18.5,13.1,30.19,NE,37,2.0,3.0,79,0.00,,,0.00,0.0,meteohub,2013-02-22 05:55:00,